Terminal Aerodrome Forecast
Issued by NWS Knoxville/Tri Cities, TN

Home | Current Version | Previous Version | Text Only | Print | Product List | Glossary On
Versions: 1 2 3 4 5 6 7 8 9 10 11 12 13 14 15 16 17
000
FTUS44 KMRX 261130
TAFTRI
TAF
KTRI 261130Z 2612/2712 00000KT 1/4SM FG VV002
     FM261245 00000KT 1 1/2SM BR BKN003
     FM261315 VRB02KT 4SM BR SCT006
     FM261400 20007KT P6SM FEW060
     FM270100 VRB02KT P6SM BKN250=

USA.gov is the U.S. government's official web portal to all federal, state and local government web resources and services.